Airfield :
LOGIN :

Register | Disclaimer

   EN    FR    IT 

 










Legend :    VFR   Marginal VFR   IFR   Intensive IFR   Very Intensive IFR
Visi :
Ceiling :
>= 8 km
>= 3000ft
5 to 8 km
1000 to 3000 ft
1500m to 5 km
500 to 1000 ft
800 to 1500m
200 to 500 ft
< 800m
< 200 ft
Symbols :   Thunderstorms  Fog  Heavy snow  Heavy precipitations  Wind > 20 kt
SIGMETs :     Misc.  Thunderstorms  Icing  Turbulence  Mountain Waves  Volcanic Ashes







- Airport Elevation : 240 ft
- IATA code : VLC


LEVC - Valencia Manises

CURRENT METAR :
  • 181200Z 08005KT 060V120 CAVOK 19/02 Q1019 NOSIG

EXPIRED METARs :
  • 181130Z 08006KT CAVOK 19/01 Q1020 NOSIG
  • 181100Z VRB01KT CAVOK 18/00 Q1020 NOSIG
  • 181030Z 00000KT CAVOK 18/00 Q1020 NOSIG
  • 181000Z 00000KT CAVOK 16/00 Q1020 NOSIG
  • 180930Z 00000KT CAVOK 15/01 Q1020 NOSIG

TAF TAF LEVC
Valid from the 18 at 12:00 until the 19 at 12:00 UTC


181100Z 1812/1912 10007KT CAVOK TX20/1813Z TN06/1906Z
BECMG 1816/1818 VRB03KT
PROB30
TEMPO 1902/1907 BKN014
No reported NOTAMs for that airfield.



MET'MAP, your aeronautical weather chart ! - Copyright ORBIFLY December 2007 - Disclaimer

ORBIFLY MET'MAP TEAM :

Programming & Development : Alexandra Zaïnal
Concept & Development : Baudouin d'Aumeries
Co-Development & Prog : Marc-Olivier Méhu
Technical & hardware support : Manuel Goepfert

Contact : metmap@orbifly.com




SOURCES & CREDITS :

   NOAA